Terminal Aerodrome Forecast
Issued by NWS

Home | Current Version | Previous Version | Graphics & Text | Print | Product List | Glossary On
Versions: 1 2 3 4 5 6 7 8 9 10 11 12 13 14 15 16 17 18 19 20 21 22 23 24
454
FTUS43 KICT 181136
TAFHUT
TAF
KHUT 181136Z 1812/1912 20005KT P6SM BKN200
     FM181400 18006KT P6SM -RA BKN080 OVC150
     FM181800 19012KT P6SM SCT050
     FM190300 16008KT P6SM OVC015
     FM190600 16007KT P6SM BKN008
     FM190800 16007KT 4SM BR BKN008=

USA.gov is the U.S. government's official web portal to all federal, state and local government web resources and services.